Time;durP1;ratioP1;P1;durP2;ratioP2;P2;SDS_P1;SDS_P2;PMS_P1;PMS_P2;Temp;Humidity;BMP_temperature;BMP_pressure;BME280_temperature;BME280_humidity;BME280_pressure;Samples;Min_cycle;Max_cycle;Signal;HPM_P1;HPM_P2
2022/10/26 06:48:29;;;;;;;;;2.00;2.00;;;;;14.81;100.00;101054.09;5846925;22;49305;-68
2022/10/26 06:50:54;;;;;;;;;2.00;2.00;;;;;15.06;99.80;101108.94;4960977;28;49928;-67
2022/10/26 06:53:46;;;;;;;;;2.00;2.00;;;;;15.66;99.58;101207.28;4954141;28;52267;-69
2022/10/26 06:56:12;;;;;;;;;5.50;4.25;;;;;15.26;99.27;101174.31;4971860;28;49860;-68
2022/10/26 06:58:39;;;;;;;;;3.00;3.00;;;;;16.20;99.31;101302.06;4971642;28;49736;-67
2022/10/26 07:01:05;;;;;;;;;4.25;2.75;;;;;16.19;99.45;101310.91;4968546;28;49900;-68
2022/10/26 07:03:31;;;;;;;;;4.50;2.75;;;;;14.67;98.91;101054.00;4953568;28;50898;-71
2022/10/26 07:05:56;;;;;;;;;3.00;3.00;;;;;15.98;98.92;101310.75;4952990;28;49945;-69
2022/10/26 07:08:21;;;;;;;;;4.75;3.50;;;;;16.23;99.14;101317.13;4954730;28;50038;-69
2022/10/26 07:10:47;;;;;;;;;5.00;3.00;;;;;16.15;98.82;101309.13;4953121;28;49749;-73
2022/10/26 07:13:12;;;;;;;;;3.00;3.00;;;;;16.24;98.82;101321.56;4951844;28;50631;-69
2022/10/26 07:15:39;;;;;;;;;4.75;4.00;;;;;16.05;98.73;101286.09;4952388;28;49863;-68
2022/10/26 07:18:06;;;;;;;;;5.00;3.00;;;;;15.59;98.76;101223.97;4952744;28;49896;-71
2022/10/26 07:20:35;;;;;;;;;3.25;2.75;;;;;16.38;98.51;101350.78;4952847;28;49905;-67
2022/10/26 07:23:01;;;;;;;;;3.00;2.75;;;;;16.07;98.35;101276.41;4959255;28;50636;-69
2022/10/26 07:25:26;;;;;;;;;3.75;3.00;;;;;15.04;98.13;101115.06;4952896;28;49784;-68
2022/10/26 07:27:57;;;;;;;;;3.50;2.00;;;;;16.45;98.24;101350.81;4961874;28;49838;-72
2022/10/26 07:30:22;;;;;;;;;5.00;2.00;;;;;16.45;98.08;101358.78;4957189;28;49782;-68
2022/10/26 07:32:48;;;;;;;;;4.00;3.00;;;;;16.31;98.14;101320.72;4957932;28;51154;-69
2022/10/26 07:35:13;;;;;;;;;1.00;1.00;;;;;16.54;97.84;101357.94;4959165;28;50040;-69
2022/10/26 07:37:39;;;;;;;;;2.50;2.50;;;;;16.18;97.24;101300.31;4958077;28;49970;-68
2022/10/26 07:40:08;;;;;;;;;4.00;2.75;;;;;16.35;97.20;101318.97;4940936;28;50224;-69
2022/10/26 07:42:35;;;;;;;;;2.50;2.50;;;;;15.94;97.19;101283.38;4965544;28;49837;-68
2022/10/26 07:45:00;;;;;;;;;3.00;3.00;;;;;15.45;96.91;101176.25;4956142;28;49778;-69
2022/10/26 07:47:25;;;;;;;;;2.00;2.00;;;;;16.18;96.30;101287.94;4959929;28;50053;-72
2022/10/26 07:49:51;;;;;;;;;2.00;2.00;;;;;16.76;96.23;101372.22;4957186;28;49888;-68
2022/10/26 07:52:16;;;;;;;;;1.00;1.00;;;;;16.75;96.00;101368.69;4943864;28;52301;-69
2022/10/26 07:54:42;;;;;;;;;2.25;1.25;;;;;16.36;95.49;101297.78;4970791;28;49860;-70
2022/10/26 07:57:07;;;;;;;;;2.00;2.00;;;;;16.82;95.29;101382.88;4958486;28;50354;-70
2022/10/26 07:59:32;;;;;;;;;3.50;1.75;;;;;16.07;95.07;101241.97;4969157;28;49722;-70
2022/10/26 08:01:57;;;;;;;;;2.75;2.00;;;;;16.91;95.14;101390.88;4964648;28;50707;-70
2022/10/26 08:04:23;;;;;;;;;2.75;2.50;;;;;16.79;95.23;101383.75;4968004;28;51541;-69
2022/10/26 08:06:48;;;;;;;;;3.75;3.75;;;;;15.94;95.08;101227.78;4973542;28;50081;-69
2022/10/26 08:09:13;;;;;;;;;3.00;3.00;;;;;15.97;94.26;101233.09;4946745;28;49831;-70
2022/10/26 08:11:39;;;;;;;;;5.75;2.00;;;;;15.81;94.31;101185.31;4957032;28;50506;-70
2022/10/26 08:14:04;;;;;;;;;2.25;2.25;;;;;16.49;94.31;101309.31;4957975;28;51363;-72
2022/10/26 08:16:30;;;;;;;;;2.00;2.00;;;;;16.94;94.08;101366.13;4964113;28;49729;-69
2022/10/26 08:18:55;;;;;;;;;3.50;3.00;;;;;17.10;93.59;101410.41;4956650;28;50220;-71
2022/10/26 08:21:48;;;;;;;;;;;;;;;;;;;;;
2022/10/26 08:24:16;;;;;;;;;4.75;3.50;;;;;16.94;93.12;101350.22;4962422;28;75327;-79
2022/10/26 08:26:47;;;;;;;;;2.75;2.75;;;;;16.94;92.80;101368.78;4942334;28;49894;-80
2022/10/26 08:29:13;;;;;;;;;1.00;1.00;;;;;15.89;92.55;101141.25;4960265;28;50026;-74
2022/10/26 08:31:38;;;;;;;;;3.75;3.00;;;;;17.21;92.71;101374.19;4959830;28;50650;-76
2022/10/26 08:34:03;;;;;;;;;2.75;2.75;;;;;17.60;92.03;101429.16;4956864;28;49821;-78
2022/10/26 08:36:29;;;;;;;;;4.00;2.50;;;;;17.64;92.16;101436.25;4970118;28;49907;-76
2022/10/26 08:38:57;;;;;;;;;4.00;2.75;;;;;17.25;91.73;101372.44;4948806;28;50334;-80
2022/10/26 08:41:42;;;;;;;;;4.25;4.25;;;;;17.76;91.76;101434.53;4959864;28;50599;-80
2022/10/26 08:44:28;;;;;;;;;1.50;1.25;;;;;17.48;91.15;101384.03;4940296;28;50477;-80
2022/10/26 08:47:25;;;;;;;;;0.75;0.75;;;;;16.82;90.65;101267.09;4938892;28;49941;-81
2022/10/26 08:50:23;;;;;;;;;4.00;2.25;;;;;17.31;90.24;101340.63;4945579;28;49973;-80
2022/10/26 08:53:13;;;;;;;;;1.00;1.00;;;;;18.01;90.58;101460.25;4958285;28;50718;-76
2022/10/26 08:56:00;;;;;;;;;2.00;2.00;;;;;18.09;89.59;101445.22;4948566;28;51923;-84
2022/10/26 08:58:37;;;;;;;;;4.00;2.75;;;;;16.80;88.45;101226.44;4941897;28;50252;-73
2022/10/26 09:01:04;;;;;;;;;4.25;3.25;;;;;18.22;88.73;101460.28;4962006;28;49651;-81
2022/10/26 09:03:33;;;;;;;;;4.00;2.75;;;;;17.71;88.28;101374.34;4945453;28;51833;-78
2022/10/26 09:06:42;;;;;;;;;3.50;2.00;;;;;18.34;88.01;101462.06;4954418;28;49553;-74
2022/10/26 09:09:19;;;;;;;;;2.50;2.50;;;;;18.34;87.84;101461.19;4893250;28;49707;-74
2022/10/26 09:12:13;;;;;;;;;3.00;3.00;;;;;18.01;87.82;101393.84;4955528;28;49671;-75
2022/10/26 09:14:46;;;;;;;;;1.00;1.00;;;;;18.48;87.03;101464.72;4959575;28;49876;-74
2022/10/26 09:17:20;;;;;;;;;2.00;1.50;;;;;18.53;87.27;101471.81;4964022;28;49615;-74
2022/10/26 09:20:05;;;;;;;;;2.00;2.00;;;;;18.57;86.46;101462.94;4967088;28;49975;-75
2022/10/26 09:22:53;;;;;;;;;7.00;3.75;;;;;18.63;86.12;101470.03;4968036;28;50144;-74
2022/10/26 09:25:21;;;;;;;;;6.50;3.00;;;;;18.68;86.24;101473.59;4950519;28;49877;-74
2022/10/26 09:27:52;;;;;;;;;2.00;1.75;;;;;18.74;85.70;101497.53;4950768;28;49988;-75
2022/10/26 09:30:20;;;;;;;;;2.50;2.50;;;;;18.43;86.11;101416.88;4950579;28;49933;-72
2022/10/26 09:32:48;;;;;;;;;2.00;2.00;;;;;18.83;85.97;101488.66;4950791;28;49893;-70
2022/10/26 09:35:20;;;;;;;;;1.75;1.75;;;;;18.86;85.25;101484.22;4951413;28;50038;-69
2022/10/26 09:37:50;;;;;;;;;5.00;3.00;;;;;18.11;85.63;101381.44;4968773;28;49671;-68
2022/10/26 09:40:27;;;;;;;;;3.00;2.00;;;;;18.95;84.86;101495.72;4969830;28;49827;-69
2022/10/26 09:43:11;;;;;;;;;2.00;2.00;;;;;18.40;83.42;101392.06;4973321;28;50335;-73
2022/10/26 09:45:42;;;;;;;;;1.00;1.00;;;;;18.95;83.55;101470.00;4977206;28;50974;-72
2022/10/26 09:48:16;;;;;;;;;1.00;0.25;;;;;17.70;82.34;101247.78;4981722;28;49704;-73
2022/10/26 09:50:47;;;;;;;;;3.00;2.75;;;;;18.72;81.79;101411.53;4972734;28;50015;-72
2022/10/26 09:53:13;;;;;;;;;1.50;1.00;;;;;18.43;82.00;101373.44;4959923;28;50413;-74
2022/10/26 09:55:44;;;;;;;;;4.25;4.25;;;;;19.30;82.23;101498.28;4959741;28;49731;-73
2022/10/26 09:58:22;;;;;;;;;1.75;1.75;;;;;18.20;80.55;101312.34;4967702;28;50058;-73
2022/10/26 10:00:47;;;;;;;;;1.00;1.00;;;;;19.40;79.95;101498.25;4966820;28;49837;-71
2022/10/26 10:03:24;;;;;;;;;2.00;2.00;;;;;19.12;80.25;101440.69;4962867;28;49973;-72
2022/10/26 10:05:49;;;;;;;;;1.00;1.00;;;;;19.27;79.89;101466.34;4968341;28;50902;-75
2022/10/26 10:08:22;;;;;;;;;0.00;0.00;;;;;18.37;79.24;101314.97;4973035;28;49683;-74
2022/10/26 10:11:06;;;;;;;;;4.50;4.25;;;;;19.50;79.56;101508.88;4964734;28;49806;-72
2022/10/26 10:13:35;;;;;;;;;2.50;2.50;;;;;19.41;79.02;101517.78;4959469;28;49668;-73
2022/10/26 10:16:15;;;;;;;;;2.00;2.00;;;;;19.65;78.57;101531.03;4954215;28;50554;-76
2022/10/26 10:18:41;;;;;;;;;1.00;1.00;;;;;19.70;77.52;101536.34;4971329;28;49537;-73
2022/10/26 10:21:09;;;;;;;;;2.50;2.50;;;;;19.75;78.22;101530.97;4954159;28;50025;-71
2022/10/26 10:23:47;;;;;;;;;2.50;1.25;;;;;19.79;77.50;101543.41;4965094;28;49805;-73
2022/10/26 10:26:12;;;;;;;;;3.00;3.00;;;;;19.77;77.41;101529.19;4965194;28;50505;-71
2022/10/26 10:28:41;;;;;;;;;0.75;0.75;;;;;19.44;77.37;101465.41;4972025;28;49759;-72
2022/10/26 10:31:21;;;;;;;;;2.25;1.00;;;;;19.59;77.18;101484.88;4972271;28;49704;-73
2022/10/26 10:33:48;;;;;;;;;2.00;2.00;;;;;19.49;77.47;101489.31;4976567;28;49915;-73
2022/10/26 10:36:19;;;;;;;;;1.25;1.25;;;;;19.88;77.26;101516.69;4977661;28;49832;-73
2022/10/26 10:38:47;;;;;;;;;0.50;0.50;;;;;20.02;76.99;101546.84;4956824;28;49902;-74
2022/10/26 10:41:23;;;;;;;;;1.00;1.00;;;;;20.04;77.01;101544.16;4955280;28;49688;-73
2022/10/26 10:43:58;;;;;;;;;1.00;1.00;;;;;19.39;76.71;101452.97;4953422;28;49882;-71
2022/10/26 10:46:26;;;;;;;;;3.00;1.75;;;;;19.96;76.79;101530.88;4935726;28;52441;-76
2022/10/26 10:49:00;;;;;;;;;1.50;1.50;;;;;18.92;76.34;101360.06;4955406;28;50613;-72
2022/10/26 10:51:26;;;;;;;;;2.00;0.75;;;;;20.19;76.76;101554.75;4962943;28;49848;-73
2022/10/26 10:53:55;;;;;;;;;1.50;1.50;;;;;20.15;76.18;101534.31;4967160;28;49995;-74
2022/10/26 10:56:32;;;;;;;;;0.25;0.25;;;;;18.99;75.46;101346.69;4952439;28;50209;-74
2022/10/26 10:59:22;;;;;;;;;15.25;12.75;;;;;19.91;75.58;101492.72;4953085;28;49781;-72
2022/10/26 11:01:51;;;;;;;;;77.50;68.50;;;;;19.53;75.36;101434.28;4967839;28;49808;-73
2022/10/26 11:04:41;;;;;;;;;93.67;84.67;;;;;19.60;75.77;101446.72;4971681;28;50015;-79
2022/10/26 11:07:10;;;;;;;;;4.75;2.00;;;;;20.10;73.32;101509.47;4971465;28;50705;-75
2022/10/26 11:09:40;;;;;;;;;9.50;7.00;;;;;20.17;73.70;101538.75;4971551;28;50141;-76
2022/10/26 11:12:14;;;;;;;;;3.00;1.75;;;;;20.21;72.56;101531.63;4954185;28;49782;-76
2022/10/26 11:14:53;;;;;;;;;6.00;3.50;;;;;19.14;72.14;101333.34;4976028;28;49855;-83
2022/10/26 11:17:23;;;;;;;;;23.50;20.25;;;;;19.92;72.50;101462.50;4974606;28;50384;-76
2022/10/26 11:19:59;;;;;;;;;5.25;4.00;;;;;20.46;72.35;101530.59;4971683;28;49735;-71
2022/10/26 11:22:30;;;;;;;;;9.25;9.25;;;;;20.13;72.23;101473.00;4971344;28;49806;-70
2022/10/26 11:25:04;;;;;;;;;4.75;4.75;;;;;20.61;72.06;101545.56;4971994;28;49850;-69
2022/10/26 11:27:46;;;;;;;;;4.50;4.50;;;;;20.67;71.10;101569.53;4970852;28;49852;-70
2022/10/26 11:30:26;;;;;;;;;12.50;12.50;;;;;20.61;70.86;101534.91;4953633;28;49916;-70
2022/10/26 11:33:22;;;;;;;;;4.25;4.25;;;;;19.98;70.10;101411.84;4971118;28;50055;-66
2022/10/26 11:36:08;;;;;;;;;4.75;4.75;;;;;20.94;70.50;101570.19;4971334;28;49853;-73
2022/10/26 11:38:49;;;;;;;;;9.00;7.25;;;;;20.80;70.24;101535.63;4958320;28;49815;-71
2022/10/26 11:41:28;;;;;;;;;17.50;16.50;;;;;19.70;70.42;101349.88;4954515;28;50084;-71
2022/10/26 11:44:04;;;;;;;;;22.50;19.50;;;;;20.01;70.13;101409.16;4952454;28;49868;-71
2022/10/26 11:46:49;;;;;;;;;15.00;13.50;;;;;20.58;69.99;101489.59;4952424;28;49871;-71
2022/10/26 11:49:25;;;;;;;;;68.75;58.25;;;;;21.12;71.35;101589.59;4962281;28;50291;-78
2022/10/26 11:52:16;;;;;;;;;81.33;79.33;;;;;20.88;71.60;101543.56;4968513;28;49739;-79
2022/10/26 11:54:54;;;;;;;;;67.50;55.75;;;;;21.17;70.95;101607.38;4959273;28;49639;-82
2022/10/26 11:57:22;;;;;;;;;31.25;29.25;;;;;21.21;70.27;101596.63;4962373;28;50011;-75
2022/10/26 11:59:53;;;;;;;;;16.50;16.50;;;;;21.29;70.30;101601.94;4963689;28;49809;-78
2022/10/26 12:02:24;;;;;;;;;42.75;37.00;;;;;21.34;70.23;101592.09;4967013;28;49913;-79
2022/10/26 12:04:57;;;;;;;;;16.75;16.25;;;;;21.49;69.84;101604.38;4963630;28;49341;-72
2022/10/26 12:07:30;;;;;;;;;21.25;18.25;;;;;21.35;69.29;101560.03;4975390;28;49829;-73
2022/10/26 12:09:58;;;;;;;;;27.25;26.00;;;;;21.52;69.09;101591.91;4975134;28;50666;-73
2022/10/26 12:12:54;;;;;;;;;9.25;9.25;;;;;21.35;69.33;101561.81;4974051;28;49935;-74
2022/10/26 12:15:31;;;;;;;;;5.75;4.75;;;;;21.62;67.86;101606.03;4969696;28;49918;-76
2022/10/26 12:18:19;;;;;;;;;7.50;5.50;;;;;21.64;68.17;101596.22;4973807;28;49805;-73
2022/10/26 12:20:45;;;;;;;;;10.50;10.00;;;;;21.68;68.96;101603.28;4954805;28;51241;-76
2022/10/26 12:23:11;;;;;;;;;46.50;39.25;;;;;21.67;69.74;101604.19;4965567;28;50779;-73
2022/10/26 12:25:38;;;;;;;;;19.00;19.00;;;;;21.69;68.72;101608.59;4946941;28;49918;-73
2022/10/26 12:28:03;;;;;;;;;6.50;5.75;;;;;21.73;69.11;101619.28;4952291;28;49888;-73
2022/10/26 12:30:31;;;;;;;;;4.25;3.25;;;;;21.74;68.86;101610.34;4967927;28;49809;-72
2022/10/26 12:33:00;;;;;;;;;19.00;17.50;;;;;21.78;69.31;101609.41;4967577;28;49829;-72
2022/10/26 12:35:48;;;;;;;;;5.00;5.00;;;;;21.81;68.54;101606.69;4973802;28;49795;-72
2022/10/26 12:38:20;;;;;;;;;38.50;33.75;;;;;21.81;69.39;101610.28;4943982;28;49658;-72
2022/10/26 12:40:47;;;;;;;;;8.00;6.50;;;;;21.81;68.84;101609.34;4969227;28;49589;-73
2022/10/26 12:43:13;;;;;;;;;9.75;7.75;;;;;21.78;68.69;101612.97;4983088;28;49437;-72
2022/10/26 12:45:39;;;;;;;;;12.50;12.50;;;;;21.80;69.12;101613.81;4982768;28;49746;-73
2022/10/26 12:48:20;;;;;;;;;9.25;7.00;;;;;21.49;68.61;101559.84;4973599;28;49889;-73
2022/10/26 12:51:16;;;;;;;;;7.00;5.25;;;;;21.50;68.51;101552.72;4973998;28;49551;-72
2022/10/26 12:53:48;;;;;;;;;1.75;1.75;;;;;21.63;68.06;101583.75;4952605;28;49418;-74
2022/10/26 12:56:19;;;;;;;;;6.00;4.25;;;;;21.82;68.21;101613.81;4933801;28;49925;-75
2022/10/26 12:59:06;;;;;;;;;0.50;0.50;;;;;21.86;67.41;101608.41;4938968;28;49933;-73
2022/10/26 13:02:06;;;;;;;;;3.50;3.50;;;;;21.89;67.06;101613.69;4973361;28;50386;-75
2022/10/26 13:04:53;;;;;;;;;1.75;1.75;;;;;21.95;66.66;101612.75;4965151;28;49785;-76
2022/10/26 13:07:22;;;;;;;;;2.50;1.50;;;;;21.99;66.88;101622.50;4972770;28;49779;-77
2022/10/26 13:10:13;;;;;;;;;0.75;0.75;;;;;21.75;67.02;101569.34;4970989;28;49371;-75
2022/10/26 13:12:55;;;;;;;;;2.00;2.00;;;;;21.78;66.93;101577.31;4967761;28;49858;-78
2022/10/26 13:15:27;;;;;;;;;3.00;2.75;;;;;21.72;67.11;101564.94;4968605;28;49592;-76
2022/10/26 13:18:16;;;;;;;;;3.00;2.00;;;;;22.05;66.90;101630.44;4956757;28;49621;-79
2022/10/26 13:21:01;;;;;;;;;3.50;3.00;;;;;22.09;67.18;101626.84;4966084;28;49596;-81
2022/10/26 13:23:29;;;;;;;;;2.00;2.00;;;;;22.12;66.59;101629.50;4981901;28;50581;-80
2022/10/26 13:26:11;;;;;;;;;2.25;2.25;;;;;22.10;66.99;101628.66;4979832;28;49329;-79
2022/10/26 13:28:37;;;;;;;;;3.50;2.00;;;;;22.11;66.62;101624.19;4975055;28;49797;-79
2022/10/26 13:31:10;;;;;;;;;0.25;0.25;;;;;21.30;67.13;101504.88;4937821;28;49652;-79
2022/10/26 13:33:39;;;;;;;;;3.00;1.50;;;;;21.37;66.82;101506.59;4974874;28;49807;-78
2022/10/26 13:36:25;;;;;;;;;2.50;1.75;;;;;21.55;67.44;101534.88;4968082;28;49458;-80
2022/10/26 13:38:51;;;;;;;;;2.50;1.75;;;;;21.91;67.15;101584.31;4970779;28;49614;-78
2022/10/26 13:41:35;;;;;;;;;1.00;1.00;;;;;21.94;67.61;101585.13;4950599;28;49613;-81
2022/10/26 13:44:17;;;;;;;;;2.00;2.00;;;;;22.15;67.38;101621.44;4966416;28;49590;-78
2022/10/26 13:46:45;;;;;;;;;1.00;1.00;;;;;21.99;67.66;101595.75;4968393;28;49794;-78
2022/10/26 13:49:45;;;;;;;;;3.00;1.50;;;;;22.19;67.08;101628.50;4965366;28;49312;-78
2022/10/26 13:52:16;;;;;;;;;0.25;0.00;;;;;21.71;66.95;101556.03;4949884;28;49647;-79
2022/10/26 13:54:46;;;;;;;;;0.00;0.00;;;;;21.92;66.94;101584.28;4969188;28;49977;-79
2022/10/26 13:57:41;;;;;;;;;0.75;0.75;;;;;21.84;66.49;101575.47;4968935;28;49494;-79
2022/10/26 14:00:14;;;;;;;;;2.25;0.50;;;;;22.03;66.47;101605.53;4982593;28;49455;-78
2022/10/26 14:02:43;;;;;;;;;1.00;1.00;;;;;21.94;66.79;101585.13;4985124;28;49267;-79
2022/10/26 14:05:12;;;;;;;;;0.25;0.25;;;;;22.22;66.41;101631.16;4966484;28;50856;-81
2022/10/26 14:07:47;;;;;;;;;2.50;1.50;;;;;21.93;66.81;101586.06;4974701;28;49948;-78
2022/10/26 14:10:33;;;;;;;;;1.25;1.25;;;;;22.24;66.46;101636.47;4972840;28;49669;-80
2022/10/26 14:13:00;;;;;;;;;2.50;1.25;;;;;21.81;66.32;101559.50;4972707;28;49818;-77
2022/10/26 14:15:30;;;;;;;;;1.00;1.00;;;;;22.23;66.51;101630.25;4978781;28;50773;-80
2022/10/26 14:17:58;;;;;;;;;2.50;0.25;;;;;22.24;66.67;101633.81;4971308;28;49793;-80
2022/10/26 14:20:26;;;;;;;;;0.50;0.50;;;;;21.96;66.41;101587.78;4972762;28;49563;-79
2022/10/26 14:22:52;;;;;;;;;1.25;1.00;;;;;22.21;66.14;101633.84;4972324;28;49890;-79
2022/10/26 14:25:23;;;;;;;;;1.00;1.00;;;;;21.44;65.52;101497.59;4953620;28;51625;-80
2022/10/26 14:27:49;;;;;;;;;1.00;1.00;;;;;22.23;65.73;101638.25;4972367;28;49797;-77
2022/10/26 14:30:22;;;;;;;;;0.25;0.00;;;;;22.20;65.56;101634.75;4972540;28;49963;-80
2022/10/26 14:32:48;;;;;;;;;0.75;0.75;;;;;21.68;65.75;101553.38;4972706;28;49719;-81
2022/10/26 14:35:14;;;;;;;;;0.00;0.00;;;;;20.92;65.98;101427.88;4965548;28;49726;-82
2022/10/26 14:37:56;;;;;;;;;1.50;0.50;;;;;21.61;66.20;101565.03;4972611;28;49797;-82
2022/10/26 14:40:26;;;;;;;;;2.75;1.50;;;;;22.10;66.58;101649.13;4972716;28;49788;-82
2022/10/26 14:42:55;;;;;;;;;2.00;1.00;;;;;22.13;66.52;101636.63;4973733;28;49792;-81
2022/10/26 14:45:24;;;;;;;;;0.25;0.25;;;;;20.92;66.53;101444.75;4944440;28;51230;-80
2022/10/26 14:47:50;;;;;;;;;0.00;0.00;;;;;20.96;66.55;101450.97;4955907;28;49764;-82
2022/10/26 14:50:19;;;;;;;;;0.75;0.75;;;;;22.06;67.14;101636.69;4956089;28;49585;-80
2022/10/26 14:52:53;;;;;;;;;2.25;1.75;;;;;21.79;67.36;101596.00;4956909;28;49989;-82
2022/10/26 14:55:20;;;;;;;;;0.25;0.25;;;;;21.98;67.53;101631.41;4957976;28;50981;-81
2022/10/26 14:57:47;;;;;;;;;2.00;1.00;;;;;21.99;67.34;101651.91;4953442;28;49973;-81
2022/10/26 15:00:21;;;;;;;;;1.25;1.00;;;;;21.94;67.60;101641.28;4959663;28;49838;-82
2022/10/26 15:02:54;;;;;;;;;0.00;0.00;;;;;20.67;67.88;101443.25;4968913;28;49473;-80
2022/10/26 15:05:27;;;;;;;;;0.25;0.00;;;;;21.87;68.30;101644.91;4946482;28;53106;-80
2022/10/26 15:07:53;;;;;;;;;0.00;0.00;;;;;21.56;68.03;101603.44;4971127;28;49815;-81
2022/10/26 15:10:37;;;;;;;;;2.00;1.00;;;;;21.81;68.54;101647.69;4959119;28;49811;-79
2022/10/26 15:13:32;;;;;;;;;1.25;1.25;;;;;21.29;68.91;101569.88;5068865;27;49738;-76
2022/10/26 15:16:08;;;;;;;;;1.25;0.00;;;;;21.58;68.62;101617.66;5073272;28;49853;-76
2022/10/26 15:18:36;;;;;;;;;0.00;0.00;;;;;21.48;68.46;101606.19;5075739;27;49770;-78
2022/10/26 15:21:06;;;;;;;;;0.00;0.00;;;;;21.02;68.63;101517.63;5074940;28;50067;-81
2022/10/26 15:23:31;;;;;;;;;2.75;1.75;;;;;20.78;68.88;101502.75;5065859;27;49652;-81
2022/10/26 15:25:59;;;;;;;;;0.75;0.75;;;;;21.67;68.91;101655.84;5070380;28;49896;-75
2022/10/26 15:28:43;;;;;;;;;0.00;0.00;;;;;21.13;69.03;101579.78;5084126;27;49343;-77
2022/10/26 15:31:08;;;;;;;;;1.25;1.25;;;;;21.58;69.37;101655.94;5080443;28;49779;-77
2022/10/26 15:33:37;;;;;;;;;1.00;0.00;;;;;21.19;69.09;101597.53;5070367;28;49522;-81
2022/10/26 15:36:17;;;;;;;;;2.75;2.75;;;;;21.51;69.12;101656.00;5079117;28;50049;-76
2022/10/26 15:38:43;;;;;;;;;4.50;0.00;;;;;21.16;69.41;101603.81;5065512;28;49774;-78
2022/10/26 15:41:22;;;;;;;;;1.50;0.75;;;;;21.09;69.44;101596.75;5076904;28;49875;-77
2022/10/26 15:43:50;;;;;;;;;0.75;0.75;;;;;21.43;69.56;101667.69;5082914;28;49281;-78
2022/10/26 15:46:19;;;;;;;;;0.50;0.00;;;;;20.89;69.90;101577.34;5082781;27;49764;-79
2022/10/26 15:48:54;;;;;;;;;1.50;0.75;;;;;21.06;69.49;101615.47;5079690;28;49755;-83
2022/10/26 15:51:19;;;;;;;;;2.75;1.00;;;;;21.35;69.78;101669.53;5085404;28;50737;-89
2022/10/26 15:53:45;;;;;;;;;2.00;1.25;;;;;19.93;69.75;101427.84;5085567;27;49295;-79
2022/10/26 15:56:15;;;;;;;;;0.25;0.25;;;;;20.45;70.49;101528.78;5084738;27;49583;-84
2022/10/26 15:58:41;;;;;;;;;2.00;1.00;;;;;21.30;70.28;101675.81;5084761;27;49208;-84
2022/10/26 16:01:06;;;;;;;;;0.50;0.50;;;;;20.94;69.86;101613.81;5083434;28;51951;-86
2022/10/26 16:03:32;;;;;;;;;2.00;0.75;;;;;21.26;70.17;101674.03;5084558;28;49567;-89
2022/10/26 16:05:59;;;;;;;;;0.75;0.75;;;;;19.88;69.82;101463.41;5086909;28;49234;-87
2022/10/26 16:08:28;;;;;;;;;0.50;0.50;;;;;20.98;70.28;101652.91;5084117;28;49604;-80
2022/10/26 16:10:53;;;;;;;;;2.00;1.00;;;;;20.98;70.35;101642.22;5081929;28;49655;-77
2022/10/26 16:13:19;;;;;;;;;0.00;0.00;;;;;21.14;70.49;101677.69;5092117;27;49922;-77
2022/10/26 16:15:44;;;;;;;;;0.00;0.00;;;;;19.60;71.21;101434.28;5090534;27;49782;-77
2022/10/26 16:18:10;;;;;;;;;0.00;0.00;;;;;19.42;70.88;101405.06;5086165;27;49954;-77
2022/10/26 16:20:36;;;;;;;;;0.50;0.50;;;;;21.00;70.97;101677.78;5085343;27;49884;-77
2022/10/26 16:23:05;;;;;;;;;0.75;0.75;;;;;20.34;71.15;101599.94;5075992;27;49728;-76
2022/10/26 16:25:33;;;;;;;;;2.25;1.00;;;;;20.41;71.58;101599.03;5066480;28;50054;-77
2022/10/26 16:27:58;;;;;;;;;1.75;0.00;;;;;20.86;71.70;101677.91;5048611;28;50056;-77
2022/10/26 16:30:24;;;;;;;;;0.00;0.00;;;;;20.64;71.93;101648.69;5072823;28;50631;-77
2022/10/26 16:32:49;;;;;;;;;1.00;1.00;;;;;20.68;72.08;101674.47;5072513;28;49888;-77
2022/10/26 16:35:15;;;;;;;;;1.00;1.00;;;;;20.31;72.75;101626.66;5072967;28;49932;-74
2022/10/26 16:37:40;;;;;;;;;2.50;1.00;;;;;20.48;72.89;101655.94;5054528;28;50015;-76
2022/10/26 16:40:07;;;;;;;;;3.75;1.25;;;;;20.69;73.16;101706.47;5072731;27;50211;-76
2022/10/26 16:42:33;;;;;;;;;1.00;0.75;;;;;20.56;73.26;101695.00;5072645;28;49926;-76
2022/10/26 16:44:58;;;;;;;;;1.00;1.00;;;;;20.15;73.34;101625.81;5072685;27;49869;-76
2022/10/26 16:47:25;;;;;;;;;0.50;0.50;;;;;19.27;73.86;101485.88;5072742;27;50033;-76
2022/10/26 16:49:50;;;;;;;;;0.00;0.00;;;;;20.37;73.63;101676.41;5072734;28;49979;-76
2022/10/26 16:52:16;;;;;;;;;2.75;1.50;;;;;20.38;74.24;101719.06;5072419;28;49750;-76
2022/10/26 16:54:41;;;;;;;;;0.75;0.75;;;;;20.34;74.49;101703.06;5072942;27;49867;-73
2022/10/26 16:57:07;;;;;;;;;1.25;1.25;;;;;20.07;75.16;101674.72;5075265;27;49866;-75
2022/10/26 16:59:32;;;;;;;;;1.75;1.75;;;;;20.14;75.32;101695.16;5080893;28;50379;-76
2022/10/26 17:01:58;;;;;;;;;4.50;3.50;;;;;19.52;75.64;101601.19;5078208;28;49929;-76
2022/10/26 17:04:23;;;;;;;;;3.50;2.75;;;;;20.08;76.14;101717.41;5093359;27;49486;-73
2022/10/26 17:06:49;;;;;;;;;3.50;3.50;;;;;20.01;76.48;101719.19;5089176;27;49651;-71
2022/10/26 17:09:14;;;;;;;;;5.00;4.25;;;;;19.91;77.12;101705.91;5077297;28;50374;-69
2022/10/26 17:11:40;;;;;;;;;3.75;3.75;;;;;19.43;77.15;101633.16;5070599;27;50004;-75
2022/10/26 17:14:06;;;;;;;;;8.25;7.25;;;;;19.87;77.56;101725.44;5073698;27;50021;-77
2022/10/26 17:16:34;;;;;;;;;3.75;2.50;;;;;19.82;77.59;101740.56;5072541;27;49767;-78
2022/10/26 17:18:59;;;;;;;;;2.50;2.50;;;;;19.78;77.62;101734.31;5053706;28;52350;-73
2022/10/26 17:21:33;;;;;;;;;3.25;3.25;;;;;19.60;77.92;101734.38;5071786;27;49862;-74
2022/10/26 17:23:59;;;;;;;;;3.25;3.00;;;;;19.16;78.07;101668.66;5066501;28;49699;-76
2022/10/26 17:26:25;;;;;;;;;3.00;1.50;;;;;18.71;78.36;101593.25;5074991;27;49708;-75
2022/10/26 17:28:55;;;;;;;;;6.25;3.00;;;;;19.65;78.83;101743.22;5057209;28;51771;-76
2022/10/26 17:31:22;;;;;;;;;3.00;2.75;;;;;18.41;79.02;101550.66;5051007;28;49851;-76
2022/10/26 17:33:49;;;;;;;;;4.75;4.25;;;;;18.29;79.34;101541.78;5074904;28;49900;-73
2022/10/26 17:36:15;;;;;;;;;5.25;4.00;;;;;18.43;79.90;101592.34;5065919;28;49546;-73
2022/10/26 17:38:42;;;;;;;;;2.50;2.50;;;;;19.46;80.03;101747.66;5065336;28;50395;-72
2022/10/26 17:41:10;;;;;;;;;4.00;3.50;;;;;19.40;80.53;101748.56;5071923;27;49900;-73
2022/10/26 17:43:37;;;;;;;;;7.25;7.25;;;;;18.72;80.70;101656.25;5072636;27;50149;-75
2022/10/26 17:46:08;;;;;;;;;7.75;5.00;;;;;19.11;80.87;101711.28;5072103;27;49903;-76
2022/10/26 17:48:34;;;;;;;;;5.75;5.75;;;;;18.79;80.84;101681.94;5070546;28;50903;-75
2022/10/26 17:51:06;;;;;;;;;3.75;3.75;;;;;18.37;81.29;101633.97;5069325;27;49698;-76
2022/10/26 17:53:31;;;;;;;;;7.25;6.00;;;;;18.43;81.39;101633.97;5049220;28;50188;-73
2022/10/26 17:56:12;;;;;;;;;5.00;5.00;;;;;19.24;81.78;101761.84;5070349;27;49769;-75
2022/10/26 17:58:38;;;;;;;;;6.00;6.00;;;;;17.77;81.49;101516.00;5066319;27;49766;-75
2022/10/26 18:01:06;;;;;;;;;5.00;4.50;;;;;18.71;81.66;101686.34;5049481;28;49775;-76
2022/10/26 18:03:33;;;;;;;;;6.75;4.50;;;;;18.28;81.52;101616.22;5070679;27;49834;-74
2022/10/26 18:05:58;;;;;;;;;8.50;5.75;;;;;19.10;82.52;101770.69;5070820;27;49781;-74
2022/10/26 18:08:24;;;;;;;;;6.50;6.50;;;;;19.07;82.83;101769.78;5070943;28;49881;-73
2022/10/26 18:10:52;;;;;;;;;9.25;6.50;;;;;18.93;82.73;101751.16;5072951;28;49893;-77
2022/10/26 18:13:18;;;;;;;;;6.00;6.00;;;;;18.90;82.87;101751.13;5070963;27;49825;-73
2022/10/26 18:15:44;;;;;;;;;6.25;5.25;;;;;18.97;83.25;101776.00;5071369;28;50264;-72
2022/10/26 18:18:10;;;;;;;;;7.50;6.50;;;;;18.93;83.80;101777.75;5070804;28;51203;-76
2022/10/26 18:20:36;;;;;;;;;7.25;6.50;;;;;18.58;83.77;101714.66;5052630;28;49998;-77
2022/10/26 18:23:01;;;;;;;;;7.75;6.75;;;;;18.89;83.52;101781.28;5076233;28;49776;-74
2022/10/26 18:25:27;;;;;;;;;5.75;5.75;;;;;18.67;83.45;101743.09;5053141;28;49799;-73
2022/10/26 18:27:53;;;;;;;;;8.25;6.25;;;;;18.71;83.62;101758.16;5069686;28;50547;-73
2022/10/26 18:30:18;;;;;;;;;7.00;5.00;;;;;18.85;83.84;101792.81;5065668;27;49728;-76
2022/10/26 18:32:44;;;;;;;;;5.75;5.75;;;;;18.63;83.95;101765.22;5067014;28;49820;-84